sensor_id;sensor_type;location;lat;lon;timestamp;P1;durP1;ratioP1;P2;durP2;ratioP2
31906;SDS011;18455;50.858;13.662;2023-09-30T00:02:54;18.92;;;8.88;;
31906;SDS011;18455;50.858;13.662;2023-09-30T00:07:54;26.02;;;9.85;;
31906;SDS011;18455;50.858;13.662;2023-09-30T00:12:54;24.33;;;9.77;;
31906;SDS011;18455;50.858;13.662;2023-09-30T00:17:55;20.35;;;9.93;;
31906;SDS011;18455;50.858;13.662;2023-09-30T00:22:55;30.83;;;10.30;;
31906;SDS011;18455;50.858;13.662;2023-09-30T00:27:56;27.00;;;11.63;;
31906;SDS011;18455;50.858;13.662;2023-09-30T00:32:56;24.38;;;10.07;;
31906;SDS011;18455;50.858;13.662;2023-09-30T00:37:57;21.23;;;9.85;;
31906;SDS011;18455;50.858;13.662;2023-09-30T00:42:58;23.33;;;9.88;;
31906;SDS011;18455;50.858;13.662;2023-09-30T00:47:58;23.90;;;10.63;;
31906;SDS011;18455;50.858;13.662;2023-09-30T00:52:59;21.52;;;8.68;;
31906;SDS011;18455;50.858;13.662;2023-09-30T00:57:59;10.70;;;4.25;;
31906;SDS011;18455;50.858;13.662;2023-09-30T01:02:59;6.93;;;3.30;;
31906;SDS011;18455;50.858;13.662;2023-09-30T01:08:03;6.70;;;3.80;;
31906;SDS011;18455;50.858;13.662;2023-09-30T01:13:04;4.45;;;2.92;;
31906;SDS011;18455;50.858;13.662;2023-09-30T01:18:04;7.75;;;3.15;;
31906;SDS011;18455;50.858;13.662;2023-09-30T01:23:05;7.07;;;3.50;;
31906;SDS011;18455;50.858;13.662;2023-09-30T01:28:07;6.72;;;5.15;;
31906;SDS011;18455;50.858;13.662;2023-09-30T01:33:08;8.68;;;5.43;;
31906;SDS011;18455;50.858;13.662;2023-09-30T01:38:08;8.25;;;5.72;;
31906;SDS011;18455;50.858;13.662;2023-09-30T01:43:09;6.10;;;5.47;;
31906;SDS011;18455;50.858;13.662;2023-09-30T01:48:10;5.55;;;4.18;;
31906;SDS011;18455;50.858;13.662;2023-09-30T01:53:11;9.18;;;3.47;;
31906;SDS011;18455;50.858;13.662;2023-09-30T01:58:11;6.78;;;3.00;;
31906;SDS011;18455;50.858;13.662;2023-09-30T02:03:12;6.15;;;2.40;;
31906;SDS011;18455;50.858;13.662;2023-09-30T02:08:12;5.35;;;2.10;;
31906;SDS011;18455;50.858;13.662;2023-09-30T02:13:13;6.53;;;2.40;;
31906;SDS011;18455;50.858;13.662;2023-09-30T02:18:14;8.70;;;2.40;;
31906;SDS011;18455;50.858;13.662;2023-09-30T02:23:14;6.35;;;2.17;;
31906;SDS011;18455;50.858;13.662;2023-09-30T02:28:17;6.68;;;2.10;;
31906;SDS011;18455;50.858;13.662;2023-09-30T02:33:17;6.25;;;2.38;;
31906;SDS011;18455;50.858;13.662;2023-09-30T02:38:17;13.85;;;3.20;;
31906;SDS011;18455;50.858;13.662;2023-09-30T02:43:18;9.02;;;2.70;;
31906;SDS011;18455;50.858;13.662;2023-09-30T02:48:18;6.78;;;2.83;;
31906;SDS011;18455;50.858;13.662;2023-09-30T02:53:20;8.43;;;3.00;;
31906;SDS011;18455;50.858;13.662;2023-09-30T02:58:20;14.65;;;3.45;;
31906;SDS011;18455;50.858;13.662;2023-09-30T03:03:21;8.57;;;2.78;;
31906;SDS011;18455;50.858;13.662;2023-09-30T03:08:21;12.68;;;2.83;;
31906;SDS011;18455;50.858;13.662;2023-09-30T03:13:22;9.95;;;2.67;;
31906;SDS011;18455;50.858;13.662;2023-09-30T03:18:23;13.52;;;3.13;;
31906;SDS011;18455;50.858;13.662;2023-09-30T03:23:27;13.10;;;3.30;;
31906;SDS011;18455;50.858;13.662;2023-09-30T03:28:30;9.00;;;2.80;;
31906;SDS011;18455;50.858;13.662;2023-09-30T03:33:34;12.30;;;3.13;;
31906;SDS011;18455;50.858;13.662;2023-09-30T03:38:35;14.00;;;3.28;;
31906;SDS011;18455;50.858;13.662;2023-09-30T03:43:36;10.20;;;2.70;;
31906;SDS011;18455;50.858;13.662;2023-09-30T03:48:41;7.68;;;2.92;;
31906;SDS011;18455;50.858;13.662;2023-09-30T03:53:43;9.07;;;2.45;;
31906;SDS011;18455;50.858;13.662;2023-09-30T03:58:44;8.80;;;3.00;;
31906;SDS011;18455;50.858;13.662;2023-09-30T04:03:45;11.60;;;2.67;;
31906;SDS011;18455;50.858;13.662;2023-09-30T04:08:45;9.75;;;2.15;;
31906;SDS011;18455;50.858;13.662;2023-09-30T04:13:46;6.60;;;2.35;;
31906;SDS011;18455;50.858;13.662;2023-09-30T04:18:47;12.90;;;3.13;;
31906;SDS011;18455;50.858;13.662;2023-09-30T04:23:50;8.93;;;2.90;;
31906;SDS011;18455;50.858;13.662;2023-09-30T04:28:51;9.27;;;2.83;;
31906;SDS011;18455;50.858;13.662;2023-09-30T04:33:51;14.18;;;3.13;;
31906;SDS011;18455;50.858;13.662;2023-09-30T04:38:52;9.35;;;3.47;;
31906;SDS011;18455;50.858;13.662;2023-09-30T04:43:53;10.40;;;3.13;;
31906;SDS011;18455;50.858;13.662;2023-09-30T04:48:53;14.40;;;3.63;;
31906;SDS011;18455;50.858;13.662;2023-09-30T04:53:53;14.70;;;3.42;;
31906;SDS011;18455;50.858;13.662;2023-09-30T04:58:59;11.70;;;2.97;;
31906;SDS011;18455;50.858;13.662;2023-09-30T05:03:59;10.70;;;3.13;;
31906;SDS011;18455;50.858;13.662;2023-09-30T05:09:00;15.32;;;3.75;;
31906;SDS011;18455;50.858;13.662;2023-09-30T05:14:00;21.63;;;4.07;;
31906;SDS011;18455;50.858;13.662;2023-09-30T05:19:01;21.60;;;4.05;;
31906;SDS011;18455;50.858;13.662;2023-09-30T05:24:01;13.63;;;3.55;;
31906;SDS011;18455;50.858;13.662;2023-09-30T05:29:02;17.08;;;3.95;;
31906;SDS011;18455;50.858;13.662;2023-09-30T05:34:03;17.48;;;3.60;;
31906;SDS011;18455;50.858;13.662;2023-09-30T05:39:04;15.20;;;3.60;;
31906;SDS011;18455;50.858;13.662;2023-09-30T05:44:05;9.15;;;3.05;;
31906;SDS011;18455;50.858;13.662;2023-09-30T05:49:07;15.25;;;3.60;;
31906;SDS011;18455;50.858;13.662;2023-09-30T05:54:11;13.82;;;3.75;;
31906;SDS011;18455;50.858;13.662;2023-09-30T05:59:12;12.20;;;3.80;;
31906;SDS011;18455;50.858;13.662;2023-09-30T06:04:13;14.00;;;3.63;;
31906;SDS011;18455;50.858;13.662;2023-09-30T06:09:13;14.68;;;4.05;;
31906;SDS011;18455;50.858;13.662;2023-09-30T06:14:14;17.92;;;3.58;;
31906;SDS011;18455;50.858;13.662;2023-09-30T06:19:14;11.55;;;3.13;;
31906;SDS011;18455;50.858;13.662;2023-09-30T06:24:15;13.25;;;3.30;;
31906;SDS011;18455;50.858;13.662;2023-09-30T06:29:15;10.32;;;3.13;;
31906;SDS011;18455;50.858;13.662;2023-09-30T06:34:16;15.43;;;3.30;;
31906;SDS011;18455;50.858;13.662;2023-09-30T06:39:17;14.70;;;4.13;;
31906;SDS011;18455;50.858;13.662;2023-09-30T06:44:17;9.45;;;3.67;;
31906;SDS011;18455;50.858;13.662;2023-09-30T06:49:17;16.45;;;4.60;;
31906;SDS011;18455;50.858;13.662;2023-09-30T06:54:18;14.55;;;3.83;;
31906;SDS011;18455;50.858;13.662;2023-09-30T06:59:18;16.98;;;4.30;;
31906;SDS011;18455;50.858;13.662;2023-09-30T07:04:19;10.52;;;4.07;;
31906;SDS011;18455;50.858;13.662;2023-09-30T07:09:19;18.63;;;4.18;;
31906;SDS011;18455;50.858;13.662;2023-09-30T07:14:20;26.63;;;9.90;;
31906;SDS011;18455;50.858;13.662;2023-09-30T07:19:20;26.73;;;8.52;;
31906;SDS011;18455;50.858;13.662;2023-09-30T07:24:21;21.83;;;5.88;;
31906;SDS011;18455;50.858;13.662;2023-09-30T07:29:21;23.40;;;5.00;;
31906;SDS011;18455;50.858;13.662;2023-09-30T07:34:23;15.73;;;3.45;;
31906;SDS011;18455;50.858;13.662;2023-09-30T07:39:23;15.65;;;3.72;;
31906;SDS011;18455;50.858;13.662;2023-09-30T07:44:24;12.68;;;3.33;;
31906;SDS011;18455;50.858;13.662;2023-09-30T07:49:24;14.10;;;3.45;;
31906;SDS011;18455;50.858;13.662;2023-09-30T07:54:25;12.57;;;3.10;;
31906;SDS011;18455;50.858;13.662;2023-09-30T07:59:25;11.32;;;3.10;;
31906;SDS011;18455;50.858;13.662;2023-09-30T08:04:26;15.18;;;3.25;;
31906;SDS011;18455;50.858;13.662;2023-09-30T08:09:27;11.00;;;3.65;;
31906;SDS011;18455;50.858;13.662;2023-09-30T08:14:27;12.25;;;3.08;;
31906;SDS011;18455;50.858;13.662;2023-09-30T08:19:27;11.40;;;3.20;;
31906;SDS011;18455;50.858;13.662;2023-09-30T08:24:31;11.38;;;2.83;;
31906;SDS011;18455;50.858;13.662;2023-09-30T08:29:35;10.90;;;3.10;;
31906;SDS011;18455;50.858;13.662;2023-09-30T08:34:38;15.20;;;2.88;;
31906;SDS011;18455;50.858;13.662;2023-09-30T08:39:39;8.40;;;2.67;;
31906;SDS011;18455;50.858;13.662;2023-09-30T08:44:45;9.23;;;2.88;;
31906;SDS011;18455;50.858;13.662;2023-09-30T08:49:46;13.43;;;3.45;;
31906;SDS011;18455;50.858;13.662;2023-09-30T08:54:48;9.00;;;2.78;;
31906;SDS011;18455;50.858;13.662;2023-09-30T08:59:49;11.25;;;2.90;;
31906;SDS011;18455;50.858;13.662;2023-09-30T09:04:50;12.73;;;2.85;;
31906;SDS011;18455;50.858;13.662;2023-09-30T09:10:12;12.60;;;2.95;;
31906;SDS011;18455;50.858;13.662;2023-09-30T09:15:21;6.90;;;2.30;;
31906;SDS011;18455;50.858;13.662;2023-09-30T09:20:24;14.98;;;2.92;;
31906;SDS011;18455;50.858;13.662;2023-09-30T09:25:26;9.30;;;2.75;;
31906;SDS011;18455;50.858;13.662;2023-09-30T09:30:27;12.43;;;2.65;;
31906;SDS011;18455;50.858;13.662;2023-09-30T09:35:28;14.38;;;3.17;;
31906;SDS011;18455;50.858;13.662;2023-09-30T09:40:34;14.40;;;3.00;;
31906;SDS011;18455;50.858;13.662;2023-09-30T09:45:40;8.48;;;2.97;;
31906;SDS011;18455;50.858;13.662;2023-09-30T09:50:41;10.10;;;2.60;;
31906;SDS011;18455;50.858;13.662;2023-09-30T09:55:44;9.68;;;2.80;;
31906;SDS011;18455;50.858;13.662;2023-09-30T10:00:46;9.20;;;2.28;;
31906;SDS011;18455;50.858;13.662;2023-09-30T10:05:46;8.15;;;2.63;;
31906;SDS011;18455;50.858;13.662;2023-09-30T10:10:47;9.75;;;2.40;;
31906;SDS011;18455;50.858;13.662;2023-09-30T10:15:47;7.90;;;2.65;;
31906;SDS011;18455;50.858;13.662;2023-09-30T10:20:48;8.07;;;2.63;;
31906;SDS011;18455;50.858;13.662;2023-09-30T10:25:49;9.02;;;2.53;;
31906;SDS011;18455;50.858;13.662;2023-09-30T10:36:34;8.75;;;3.30;;
31906;SDS011;18455;50.858;13.662;2023-09-30T10:46:50;12.00;;;3.03;;
31906;SDS011;18455;50.858;13.662;2023-09-30T10:51:52;8.32;;;2.47;;
31906;SDS011;18455;50.858;13.662;2023-09-30T10:56:56;10.32;;;2.78;;
31906;SDS011;18455;50.858;13.662;2023-09-30T11:01:59;8.20;;;3.00;;
31906;SDS011;18455;50.858;13.662;2023-09-30T11:06:59;14.18;;;3.20;;
31906;SDS011;18455;50.858;13.662;2023-09-30T11:12:01;6.25;;;2.35;;
31906;SDS011;18455;50.858;13.662;2023-09-30T11:17:01;7.93;;;2.55;;
31906;SDS011;18455;50.858;13.662;2023-09-30T11:22:03;9.40;;;2.47;;
31906;SDS011;18455;50.858;13.662;2023-09-30T11:27:05;9.02;;;2.80;;
31906;SDS011;18455;50.858;13.662;2023-09-30T11:32:05;7.43;;;2.75;;
31906;SDS011;18455;50.858;13.662;2023-09-30T11:37:06;11.57;;;2.72;;
31906;SDS011;18455;50.858;13.662;2023-09-30T11:42:14;6.50;;;2.50;;
31906;SDS011;18455;50.858;13.662;2023-09-30T11:47:17;7.93;;;2.65;;
31906;SDS011;18455;50.858;13.662;2023-09-30T11:52:29;11.80;;;2.50;;
31906;SDS011;18455;50.858;13.662;2023-09-30T11:57:30;7.63;;;2.80;;
31906;SDS011;18455;50.858;13.662;2023-09-30T12:02:30;11.15;;;3.22;;
31906;SDS011;18455;50.858;13.662;2023-09-30T12:07:31;7.30;;;2.40;;
31906;SDS011;18455;50.858;13.662;2023-09-30T12:12:33;5.70;;;2.05;;
31906;SDS011;18455;50.858;13.662;2023-09-30T12:17:33;5.68;;;2.13;;
31906;SDS011;18455;50.858;13.662;2023-09-30T12:22:34;7.32;;;2.88;;
31906;SDS011;18455;50.858;13.662;2023-09-30T12:27:37;9.65;;;2.55;;
31906;SDS011;18455;50.858;13.662;2023-09-30T12:32:40;10.10;;;2.63;;
31906;SDS011;18455;50.858;13.662;2023-09-30T12:37:40;8.80;;;2.05;;
31906;SDS011;18455;50.858;13.662;2023-09-30T12:42:43;10.20;;;2.83;;
31906;SDS011;18455;50.858;13.662;2023-09-30T12:47:44;7.18;;;2.20;;
31906;SDS011;18455;50.858;13.662;2023-09-30T12:52:47;7.30;;;2.70;;
31906;SDS011;18455;50.858;13.662;2023-09-30T12:57:47;6.68;;;2.35;;
31906;SDS011;18455;50.858;13.662;2023-09-30T13:02:48;6.53;;;2.10;;
31906;SDS011;18455;50.858;13.662;2023-09-30T13:07:48;8.15;;;2.38;;
31906;SDS011;18455;50.858;13.662;2023-09-30T13:12:49;9.52;;;2.60;;
31906;SDS011;18455;50.858;13.662;2023-09-30T13:17:49;7.05;;;2.25;;
31906;SDS011;18455;50.858;13.662;2023-09-30T13:22:50;10.43;;;2.28;;
31906;SDS011;18455;50.858;13.662;2023-09-30T13:27:50;7.70;;;2.28;;
31906;SDS011;18455;50.858;13.662;2023-09-30T13:32:50;8.52;;;2.35;;
31906;SDS011;18455;50.858;13.662;2023-09-30T13:37:51;5.18;;;2.20;;
31906;SDS011;18455;50.858;13.662;2023-09-30T13:42:51;7.32;;;2.70;;
31906;SDS011;18455;50.858;13.662;2023-09-30T13:47:52;9.02;;;3.38;;
31906;SDS011;18455;50.858;13.662;2023-09-30T13:52:53;7.50;;;2.78;;
31906;SDS011;18455;50.858;13.662;2023-09-30T13:57:53;7.68;;;2.38;;
31906;SDS011;18455;50.858;13.662;2023-09-30T14:02:54;5.97;;;2.30;;
31906;SDS011;18455;50.858;13.662;2023-09-30T14:07:55;8.23;;;2.28;;
31906;SDS011;18455;50.858;13.662;2023-09-30T14:12:56;10.02;;;2.42;;
31906;SDS011;18455;50.858;13.662;2023-09-30T14:17:57;7.95;;;3.00;;
31906;SDS011;18455;50.858;13.662;2023-09-30T14:22:58;9.43;;;2.42;;
31906;SDS011;18455;50.858;13.662;2023-09-30T14:27:58;6.20;;;2.10;;
31906;SDS011;18455;50.858;13.662;2023-09-30T14:33:00;9.70;;;2.22;;
31906;SDS011;18455;50.858;13.662;2023-09-30T14:38:02;7.47;;;2.15;;
31906;SDS011;18455;50.858;13.662;2023-09-30T14:43:03;6.63;;;2.08;;
31906;SDS011;18455;50.858;13.662;2023-09-30T14:48:08;7.75;;;2.50;;
31906;SDS011;18455;50.858;13.662;2023-09-30T14:53:11;7.65;;;2.10;;
31906;SDS011;18455;50.858;13.662;2023-09-30T14:58:12;6.63;;;2.05;;
31906;SDS011;18455;50.858;13.662;2023-09-30T15:03:13;7.00;;;2.35;;
31906;SDS011;18455;50.858;13.662;2023-09-30T15:08:13;5.97;;;2.50;;
31906;SDS011;18455;50.858;13.662;2023-09-30T15:13:14;9.50;;;2.45;;
31906;SDS011;18455;50.858;13.662;2023-09-30T15:18:14;9.23;;;2.17;;
31906;SDS011;18455;50.858;13.662;2023-09-30T15:23:14;10.38;;;2.47;;
31906;SDS011;18455;50.858;13.662;2023-09-30T15:28:15;7.25;;;2.17;;
31906;SDS011;18455;50.858;13.662;2023-09-30T15:33:15;8.32;;;2.70;;
31906;SDS011;18455;50.858;13.662;2023-09-30T15:38:17;7.32;;;1.95;;
31906;SDS011;18455;50.858;13.662;2023-09-30T15:43:18;7.35;;;2.35;;
31906;SDS011;18455;50.858;13.662;2023-09-30T15:48:19;7.45;;;2.25;;
31906;SDS011;18455;50.858;13.662;2023-09-30T15:53:20;6.60;;;2.10;;
31906;SDS011;18455;50.858;13.662;2023-09-30T15:58:20;7.10;;;2.25;;
31906;SDS011;18455;50.858;13.662;2023-09-30T16:03:21;8.70;;;2.13;;
31906;SDS011;18455;50.858;13.662;2023-09-30T16:08:22;10.52;;;2.60;;
31906;SDS011;18455;50.858;13.662;2023-09-30T16:13:23;9.43;;;2.10;;
31906;SDS011;18455;50.858;13.662;2023-09-30T16:18:23;9.35;;;2.63;;
31906;SDS011;18455;50.858;13.662;2023-09-30T16:23:23;9.20;;;2.38;;
31906;SDS011;18455;50.858;13.662;2023-09-30T16:28:24;7.70;;;2.25;;
31906;SDS011;18455;50.858;13.662;2023-09-30T16:33:24;7.80;;;2.20;;
31906;SDS011;18455;50.858;13.662;2023-09-30T16:38:25;12.80;;;2.55;;
31906;SDS011;18455;50.858;13.662;2023-09-30T16:43:26;5.75;;;2.53;;
31906;SDS011;18455;50.858;13.662;2023-09-30T16:48:26;8.07;;;2.05;;
31906;SDS011;18455;50.858;13.662;2023-09-30T16:53:27;12.00;;;2.83;;
31906;SDS011;18455;50.858;13.662;2023-09-30T16:58:28;6.50;;;2.60;;
31906;SDS011;18455;50.858;13.662;2023-09-30T17:03:29;14.68;;;3.53;;
31906;SDS011;18455;50.858;13.662;2023-09-30T17:08:29;8.48;;;3.10;;
31906;SDS011;18455;50.858;13.662;2023-09-30T17:13:30;7.47;;;2.45;;
31906;SDS011;18455;50.858;13.662;2023-09-30T17:18:30;9.10;;;3.50;;
31906;SDS011;18455;50.858;13.662;2023-09-30T17:23:31;6.63;;;2.80;;
31906;SDS011;18455;50.858;13.662;2023-09-30T17:28:31;8.67;;;3.10;;
31906;SDS011;18455;50.858;13.662;2023-09-30T17:33:35;8.83;;;2.60;;
31906;SDS011;18455;50.858;13.662;2023-09-30T17:38:36;8.47;;;2.70;;
31906;SDS011;18455;50.858;13.662;2023-09-30T17:43:37;11.00;;;3.03;;
31906;SDS011;18455;50.858;13.662;2023-09-30T17:48:38;9.93;;;3.17;;
31906;SDS011;18455;50.858;13.662;2023-09-30T17:53:38;9.20;;;3.13;;
31906;SDS011;18455;50.858;13.662;2023-09-30T17:58:39;11.70;;;3.27;;
31906;SDS011;18455;50.858;13.662;2023-09-30T18:03:39;9.30;;;3.30;;
31906;SDS011;18455;50.858;13.662;2023-09-30T18:08:40;15.70;;;3.77;;
31906;SDS011;18455;50.858;13.662;2023-09-30T18:13:41;11.30;;;3.20;;
31906;SDS011;18455;50.858;13.662;2023-09-30T18:18:41;11.47;;;4.17;;
31906;SDS011;18455;50.858;13.662;2023-09-30T18:23:42;8.87;;;3.40;;
31906;SDS011;18455;50.858;13.662;2023-09-30T18:28:43;18.30;;;5.20;;
31906;SDS011;18455;50.858;13.662;2023-09-30T18:33:43;10.87;;;4.10;;
31906;SDS011;18455;50.858;13.662;2023-09-30T18:38:44;12.40;;;4.00;;
31906;SDS011;18455;50.858;13.662;2023-09-30T18:43:46;12.20;;;3.60;;
31906;SDS011;18455;50.858;13.662;2023-09-30T18:48:47;11.67;;;3.97;;
31906;SDS011;18455;50.858;13.662;2023-09-30T18:53:47;10.70;;;3.53;;
31906;SDS011;18455;50.858;13.662;2023-09-30T18:58:48;15.00;;;4.13;;
31906;SDS011;18455;50.858;13.662;2023-09-30T19:03:48;8.07;;;3.43;;
31906;SDS011;18455;50.858;13.662;2023-09-30T19:08:49;11.93;;;3.77;;
31906;SDS011;18455;50.858;13.662;2023-09-30T19:13:49;10.07;;;3.40;;
31906;SDS011;18455;50.858;13.662;2023-09-30T19:18:49;9.80;;;3.63;;
31906;SDS011;18455;50.858;13.662;2023-09-30T19:23:50;8.37;;;3.53;;
31906;SDS011;18455;50.858;13.662;2023-09-30T19:28:51;10.93;;;3.73;;
31906;SDS011;18455;50.858;13.662;2023-09-30T19:33:52;6.50;;;3.87;;
31906;SDS011;18455;50.858;13.662;2023-09-30T19:38:52;8.33;;;3.43;;
31906;SDS011;18455;50.858;13.662;2023-09-30T19:43:53;7.20;;;3.83;;
31906;SDS011;18455;50.858;13.662;2023-09-30T19:48:53;11.67;;;3.80;;
31906;SDS011;18455;50.858;13.662;2023-09-30T19:53:54;8.90;;;3.90;;
31906;SDS011;18455;50.858;13.662;2023-09-30T19:58:55;7.50;;;3.40;;
31906;SDS011;18455;50.858;13.662;2023-09-30T20:03:55;9.53;;;4.40;;
31906;SDS011;18455;50.858;13.662;2023-09-30T20:08:57;11.67;;;3.63;;
31906;SDS011;18455;50.858;13.662;2023-09-30T20:13:58;8.00;;;3.97;;
31906;SDS011;18455;50.858;13.662;2023-09-30T20:18:59;11.00;;;3.70;;
31906;SDS011;18455;50.858;13.662;2023-09-30T20:23:59;12.83;;;3.80;;
31906;SDS011;18455;50.858;13.662;2023-09-30T20:29:04;12.80;;;4.07;;
31906;SDS011;18455;50.858;13.662;2023-09-30T20:34:05;14.97;;;4.03;;
31906;SDS011;18455;50.858;13.662;2023-09-30T20:39:08;9.17;;;3.80;;
31906;SDS011;18455;50.858;13.662;2023-09-30T20:44:10;10.73;;;3.80;;
31906;SDS011;18455;50.858;13.662;2023-09-30T20:49:12;11.20;;;3.70;;
31906;SDS011;18455;50.858;13.662;2023-09-30T20:54:13;9.40;;;4.10;;
31906;SDS011;18455;50.858;13.662;2023-09-30T20:59:13;12.50;;;3.80;;
31906;SDS011;18455;50.858;13.662;2023-09-30T21:04:15;8.40;;;3.37;;
31906;SDS011;18455;50.858;13.662;2023-09-30T21:09:15;6.70;;;3.00;;
31906;SDS011;18455;50.858;13.662;2023-09-30T21:14:17;9.20;;;3.70;;
31906;SDS011;18455;50.858;13.662;2023-09-30T21:19:17;12.00;;;3.83;;
31906;SDS011;18455;50.858;13.662;2023-09-30T21:24:18;10.07;;;3.77;;
31906;SDS011;18455;50.858;13.662;2023-09-30T21:29:18;9.93;;;3.60;;
31906;SDS011;18455;50.858;13.662;2023-09-30T21:34:18;10.17;;;4.00;;
31906;SDS011;18455;50.858;13.662;2023-09-30T21:39:19;10.17;;;4.17;;
31906;SDS011;18455;50.858;13.662;2023-09-30T21:44:20;13.80;;;4.07;;
31906;SDS011;18455;50.858;13.662;2023-09-30T21:49:21;11.53;;;4.03;;
31906;SDS011;18455;50.858;13.662;2023-09-30T21:54:21;10.53;;;3.60;;
31906;SDS011;18455;50.858;13.662;2023-09-30T21:59:22;12.33;;;3.90;;
31906;SDS011;18455;50.858;13.662;2023-09-30T22:04:22;18.17;;;3.30;;
31906;SDS011;18455;50.858;13.662;2023-09-30T22:09:23;10.43;;;3.90;;
31906;SDS011;18455;50.858;13.662;2023-09-30T22:14:23;11.00;;;3.67;;
31906;SDS011;18455;50.858;13.662;2023-09-30T22:19:24;8.90;;;3.10;;
31906;SDS011;18455;50.858;13.662;2023-09-30T22:24:24;11.57;;;3.53;;
31906;SDS011;18455;50.858;13.662;2023-09-30T22:29:25;13.23;;;3.70;;
31906;SDS011;18455;50.858;13.662;2023-09-30T22:34:26;10.87;;;3.80;;
31906;SDS011;18455;50.858;13.662;2023-09-30T22:39:26;7.17;;;3.43;;
31906;SDS011;18455;50.858;13.662;2023-09-30T22:44:27;13.43;;;3.93;;
31906;SDS011;18455;50.858;13.662;2023-09-30T22:49:27;6.70;;;3.13;;
31906;SDS011;18455;50.858;13.662;2023-09-30T22:54:27;14.80;;;3.30;;
31906;SDS011;18455;50.858;13.662;2023-09-30T22:59:28;6.33;;;2.60;;
31906;SDS011;18455;50.858;13.662;2023-09-30T23:04:28;9.63;;;3.27;;
31906;SDS011;18455;50.858;13.662;2023-09-30T23:09:31;6.23;;;2.60;;
31906;SDS011;18455;50.858;13.662;2023-09-30T23:14:32;8.43;;;3.00;;
31906;SDS011;18455;50.858;13.662;2023-09-30T23:19:33;7.10;;;2.87;;
31906;SDS011;18455;50.858;13.662;2023-09-30T23:24:33;6.63;;;2.73;;
31906;SDS011;18455;50.858;13.662;2023-09-30T23:29:34;6.93;;;2.47;;
31906;SDS011;18455;50.858;13.662;2023-09-30T23:34:37;7.57;;;2.70;;
31906;SDS011;18455;50.858;13.662;2023-09-30T23:39:41;8.03;;;3.10;;
31906;SDS011;18455;50.858;13.662;2023-09-30T23:44:42;8.83;;;3.70;;
31906;SDS011;18455;50.858;13.662;2023-09-30T23:49:42;6.83;;;2.87;;
31906;SDS011;18455;50.858;13.662;2023-09-30T23:54:43;11.47;;;3.33;;
31906;SDS011;18455;50.858;13.662;2023-09-30T23:59:45;5.80;;;2.63;;
